sensor_id;sensor_type;location;lat;lon;timestamp;temperature;humidity
10278;DHT22;5184;51.376;7.148;2023-05-14T00:01:41;9.80;1.00
10278;DHT22;5184;51.376;7.148;2023-05-14T00:04:08;9.70;1.00
10278;DHT22;5184;51.376;7.148;2023-05-14T00:06:36;9.70;1.00
10278;DHT22;5184;51.376;7.148;2023-05-14T00:09:03;9.70;1.00
10278;DHT22;5184;51.376;7.148;2023-05-14T00:11:30;9.70;1.00
10278;DHT22;5184;51.376;7.148;2023-05-14T00:13:58;9.60;99.90
10278;DHT22;5184;51.376;7.148;2023-05-14T00:16:25;9.50;99.90
10278;DHT22;5184;51.376;7.148;2023-05-14T00:18:52;9.50;99.90
10278;DHT22;5184;51.376;7.148;2023-05-14T00:21:20;9.50;99.90
10278;DHT22;5184;51.376;7.148;2023-05-14T00:23:47;9.50;99.90
10278;DHT22;5184;51.376;7.148;2023-05-14T00:26:15;9.40;99.90
10278;DHT22;5184;51.376;7.148;2023-05-14T00:28:42;9.40;99.90
10278;DHT22;5184;51.376;7.148;2023-05-14T00:31:09;9.40;99.90
10278;DHT22;5184;51.376;7.148;2023-05-14T00:33:36;9.40;99.90
10278;DHT22;5184;51.376;7.148;2023-05-14T00:36:02;9.40;99.90
10278;DHT22;5184;51.376;7.148;2023-05-14T00:38:29;9.40;99.90
10278;DHT22;5184;51.376;7.148;2023-05-14T00:40:56;9.30;99.90
10278;DHT22;5184;51.376;7.148;2023-05-14T00:43:22;9.30;99.90
10278;DHT22;5184;51.376;7.148;2023-05-14T00:45:49;9.30;99.90
10278;DHT22;5184;51.376;7.148;2023-05-14T00:48:15;9.30;99.90
10278;DHT22;5184;51.376;7.148;2023-05-14T00:50:42;9.30;1.00
10278;DHT22;5184;51.376;7.148;2023-05-14T00:53:09;9.30;99.90
10278;DHT22;5184;51.376;7.148;2023-05-14T00:55:36;9.30;99.90
10278;DHT22;5184;51.376;7.148;2023-05-14T00:58:07;9.20;99.90
10278;DHT22;5184;51.376;7.148;2023-05-14T01:00:33;9.20;99.90
10278;DHT22;5184;51.376;7.148;2023-05-14T01:02:59;9.20;99.90
10278;DHT22;5184;51.376;7.148;2023-05-14T01:05:28;9.10;99.90
10278;DHT22;5184;51.376;7.148;2023-05-14T01:07:57;9.10;1.00
10278;DHT22;5184;51.376;7.148;2023-05-14T01:10:26;9.10;1.00
10278;DHT22;5184;51.376;7.148;2023-05-14T01:12:59;9.10;1.00
10278;DHT22;5184;51.376;7.148;2023-05-14T01:15:20;9.10;1.00
10278;DHT22;5184;51.376;7.148;2023-05-14T01:17:50;9.10;1.00
10278;DHT22;5184;51.376;7.148;2023-05-14T01:20:14;9.00;1.00
10278;DHT22;5184;51.376;7.148;2023-05-14T01:22:41;9.10;1.00
10278;DHT22;5184;51.376;7.148;2023-05-14T01:25:07;9.00;99.90
10278;DHT22;5184;51.376;7.148;2023-05-14T01:27:37;8.90;99.90
10278;DHT22;5184;51.376;7.148;2023-05-14T01:30:13;8.90;99.90
10278;DHT22;5184;51.376;7.148;2023-05-14T01:32:39;8.90;99.90
10278;DHT22;5184;51.376;7.148;2023-05-14T01:35:06;8.80;99.90
10278;DHT22;5184;51.376;7.148;2023-05-14T01:37:32;8.80;1.00
10278;DHT22;5184;51.376;7.148;2023-05-14T01:39:59;8.80;1.00
10278;DHT22;5184;51.376;7.148;2023-05-14T01:42:25;8.80;1.00
10278;DHT22;5184;51.376;7.148;2023-05-14T01:44:52;8.80;1.00
10278;DHT22;5184;51.376;7.148;2023-05-14T01:47:19;8.80;1.00
10278;DHT22;5184;51.376;7.148;2023-05-14T01:49:45;8.70;1.00
10278;DHT22;5184;51.376;7.148;2023-05-14T01:52:12;8.70;1.00
10278;DHT22;5184;51.376;7.148;2023-05-14T01:54:38;8.70;1.00
10278;DHT22;5184;51.376;7.148;2023-05-14T01:57:06;8.60;99.90
10278;DHT22;5184;51.376;7.148;2023-05-14T01:59:33;8.50;99.90
10278;DHT22;5184;51.376;7.148;2023-05-14T02:01:59;8.50;1.00
10278;DHT22;5184;51.376;7.148;2023-05-14T02:04:26;8.50;1.00
10278;DHT22;5184;51.376;7.148;2023-05-14T02:06:52;8.50;1.00
10278;DHT22;5184;51.376;7.148;2023-05-14T02:09:19;8.50;1.00
10278;DHT22;5184;51.376;7.148;2023-05-14T02:11:46;8.40;99.90
10278;DHT22;5184;51.376;7.148;2023-05-14T02:14:12;8.30;1.00
10278;DHT22;5184;51.376;7.148;2023-05-14T02:16:40;8.30;1.00
10278;DHT22;5184;51.376;7.148;2023-05-14T02:19:07;8.30;1.00
10278;DHT22;5184;51.376;7.148;2023-05-14T02:21:34;8.30;1.00
10278;DHT22;5184;51.376;7.148;2023-05-14T02:24:02;8.30;1.00
10278;DHT22;5184;51.376;7.148;2023-05-14T02:26:28;8.30;1.00
10278;DHT22;5184;51.376;7.148;2023-05-14T02:28:55;8.40;1.80
10278;DHT22;5184;51.376;7.148;2023-05-14T02:31:22;8.40;1.00
10278;DHT22;5184;51.376;7.148;2023-05-14T02:33:48;8.30;1.00
10278;DHT22;5184;51.376;7.148;2023-05-14T02:36:15;8.40;8.70
10278;DHT22;5184;51.376;7.148;2023-05-14T02:38:41;8.30;19.40
10278;DHT22;5184;51.376;7.148;2023-05-14T02:41:09;8.40;38.50
10278;DHT22;5184;51.376;7.148;2023-05-14T02:43:36;8.30;1.00
10278;DHT22;5184;51.376;7.148;2023-05-14T02:46:03;8.60;23.40
10278;DHT22;5184;51.376;7.148;2023-05-14T02:48:30;8.20;21.30
10278;DHT22;5184;51.376;7.148;2023-05-14T02:50:57;8.20;82.30
10278;DHT22;5184;51.376;7.148;2023-05-14T02:53:23;8.20;99.90
10278;DHT22;5184;51.376;7.148;2023-05-14T02:55:50;8.20;99.90
10278;DHT22;5184;51.376;7.148;2023-05-14T02:58:16;8.10;99.90
10278;DHT22;5184;51.376;7.148;2023-05-14T03:00:44;8.10;47.50
10278;DHT22;5184;51.376;7.148;2023-05-14T03:03:11;8.00;1.00
10278;DHT22;5184;51.376;7.148;2023-05-14T03:05:38;8.00;1.00
10278;DHT22;5184;51.376;7.148;2023-05-14T03:08:06;7.90;1.00
10278;DHT22;5184;51.376;7.148;2023-05-14T03:10:33;7.90;23.00
10278;DHT22;5184;51.376;7.148;2023-05-14T03:13:01;8.00;66.70
10278;DHT22;5184;51.376;7.148;2023-05-14T03:15:27;7.90;57.40
10278;DHT22;5184;51.376;7.148;2023-05-14T03:17:54;8.00;1.00
10278;DHT22;5184;51.376;7.148;2023-05-14T03:20:21;8.00;35.60
10278;DHT22;5184;51.376;7.148;2023-05-14T03:22:47;8.00;40.60
10278;DHT22;5184;51.376;7.148;2023-05-14T03:25:14;8.00;6.50
10278;DHT22;5184;51.376;7.148;2023-05-14T03:27:41;8.00;1.00
10278;DHT22;5184;51.376;7.148;2023-05-14T03:30:09;7.90;1.00
10278;DHT22;5184;51.376;7.148;2023-05-14T03:32:36;7.90;28.60
10278;DHT22;5184;51.376;7.148;2023-05-14T03:35:03;7.90;27.60
10278;DHT22;5184;51.376;7.148;2023-05-14T03:37:30;7.90;4.10
10278;DHT22;5184;51.376;7.148;2023-05-14T03:39:58;7.90;59.50
10278;DHT22;5184;51.376;7.148;2023-05-14T03:42:25;7.90;86.70
10278;DHT22;5184;51.376;7.148;2023-05-14T03:44:52;7.90;65.20
10278;DHT22;5184;51.376;7.148;2023-05-14T03:47:19;7.80;61.70
10278;DHT22;5184;51.376;7.148;2023-05-14T03:49:45;7.90;79.70
10278;DHT22;5184;51.376;7.148;2023-05-14T03:52:12;7.80;74.90
10278;DHT22;5184;51.376;7.148;2023-05-14T03:54:39;7.80;79.10
10278;DHT22;5184;51.376;7.148;2023-05-14T03:57:05;7.80;69.20
10278;DHT22;5184;51.376;7.148;2023-05-14T03:59:33;7.80;49.10
10278;DHT22;5184;51.376;7.148;2023-05-14T04:02:00;7.30;11.40
10278;DHT22;5184;51.376;7.148;2023-05-14T04:04:27;7.80;60.40
10278;DHT22;5184;51.376;7.148;2023-05-14T04:06:55;7.80;98.70
10278;DHT22;5184;51.376;7.148;2023-05-14T04:09:21;7.80;97.50
10278;DHT22;5184;51.376;7.148;2023-05-14T04:11:48;7.80;75.90
10278;DHT22;5184;51.376;7.148;2023-05-14T04:14:14;7.80;15.40
10278;DHT22;5184;51.376;7.148;2023-05-14T04:16:41;7.70;6.40
10278;DHT22;5184;51.376;7.148;2023-05-14T04:19:08;7.70;1.00
10278;DHT22;5184;51.376;7.148;2023-05-14T04:21:34;7.70;1.00
10278;DHT22;5184;51.376;7.148;2023-05-14T04:24:01;7.70;1.00
10278;DHT22;5184;51.376;7.148;2023-05-14T04:26:28;7.70;10.00
10278;DHT22;5184;51.376;7.148;2023-05-14T04:28:56;7.80;15.50
10278;DHT22;5184;51.376;7.148;2023-05-14T04:31:23;7.70;1.00
10278;DHT22;5184;51.376;7.148;2023-05-14T04:33:50;7.70;19.00
10278;DHT22;5184;51.376;7.148;2023-05-14T04:36:17;7.70;18.10
10278;DHT22;5184;51.376;7.148;2023-05-14T04:38:43;7.70;99.90
10278;DHT22;5184;51.376;7.148;2023-05-14T04:41:10;7.70;99.90
10278;DHT22;5184;51.376;7.148;2023-05-14T04:43:37;7.80;99.90
10278;DHT22;5184;51.376;7.148;2023-05-14T04:46:03;7.80;99.90
10278;DHT22;5184;51.376;7.148;2023-05-14T04:48:31;7.90;99.90
10278;DHT22;5184;51.376;7.148;2023-05-14T04:50:58;7.90;99.90
10278;DHT22;5184;51.376;7.148;2023-05-14T04:53:25;7.90;99.90
10278;DHT22;5184;51.376;7.148;2023-05-14T04:55:51;8.00;99.90
10278;DHT22;5184;51.376;7.148;2023-05-14T04:58:18;7.90;99.90
10278;DHT22;5184;51.376;7.148;2023-05-14T05:00:44;8.00;99.90
10278;DHT22;5184;51.376;7.148;2023-05-14T05:03:11;8.00;99.90
10278;DHT22;5184;51.376;7.148;2023-05-14T05:05:38;8.10;99.90
10278;DHT22;5184;51.376;7.148;2023-05-14T05:08:06;8.20;99.90
10278;DHT22;5184;51.376;7.148;2023-05-14T05:10:32;8.10;99.90
10278;DHT22;5184;51.376;7.148;2023-05-14T05:12:59;8.20;99.90
10278;DHT22;5184;51.376;7.148;2023-05-14T05:15:25;8.20;99.90
10278;DHT22;5184;51.376;7.148;2023-05-14T05:17:52;8.20;99.90
10278;DHT22;5184;51.376;7.148;2023-05-14T05:20:19;8.30;99.90
10278;DHT22;5184;51.376;7.148;2023-05-14T05:22:46;8.40;99.90
10278;DHT22;5184;51.376;7.148;2023-05-14T05:25:13;8.50;99.90
10278;DHT22;5184;51.376;7.148;2023-05-14T05:27:40;8.50;99.90
10278;DHT22;5184;51.376;7.148;2023-05-14T05:30:07;8.50;99.90
10278;DHT22;5184;51.376;7.148;2023-05-14T05:32:33;8.20;99.90
10278;DHT22;5184;51.376;7.148;2023-05-14T05:35:00;8.60;99.90
10278;DHT22;5184;51.376;7.148;2023-05-14T05:37:29;8.70;99.90
10278;DHT22;5184;51.376;7.148;2023-05-14T05:39:55;8.70;99.90
10278;DHT22;5184;51.376;7.148;2023-05-14T05:42:21;8.70;99.90
10278;DHT22;5184;51.376;7.148;2023-05-14T05:44:48;8.80;99.90
10278;DHT22;5184;51.376;7.148;2023-05-14T05:47:15;8.90;99.90
10278;DHT22;5184;51.376;7.148;2023-05-14T05:49:42;9.10;99.90
10278;DHT22;5184;51.376;7.148;2023-05-14T05:52:09;9.20;99.90
10278;DHT22;5184;51.376;7.148;2023-05-14T05:54:37;9.20;99.90
10278;DHT22;5184;51.376;7.148;2023-05-14T05:57:03;9.20;99.90
10278;DHT22;5184;51.376;7.148;2023-05-14T05:59:30;9.30;99.90
10278;DHT22;5184;51.376;7.148;2023-05-14T06:01:57;9.40;99.90
10278;DHT22;5184;51.376;7.148;2023-05-14T06:04:24;9.50;99.90
10278;DHT22;5184;51.376;7.148;2023-05-14T06:06:51;9.50;99.90
10278;DHT22;5184;51.376;7.148;2023-05-14T06:09:17;9.60;99.90
10278;DHT22;5184;51.376;7.148;2023-05-14T06:11:44;9.70;99.90
10278;DHT22;5184;51.376;7.148;2023-05-14T06:14:10;9.80;99.90
10278;DHT22;5184;51.376;7.148;2023-05-14T06:16:37;9.80;99.90
10278;DHT22;5184;51.376;7.148;2023-05-14T06:19:04;10.10;99.90
10278;DHT22;5184;51.376;7.148;2023-05-14T06:21:31;10.10;99.90
10278;DHT22;5184;51.376;7.148;2023-05-14T06:23:57;10.20;99.90
10278;DHT22;5184;51.376;7.148;2023-05-14T06:26:25;10.40;99.90
10278;DHT22;5184;51.376;7.148;2023-05-14T06:28:51;10.40;99.90
10278;DHT22;5184;51.376;7.148;2023-05-14T06:31:19;10.60;99.90
10278;DHT22;5184;51.376;7.148;2023-05-14T06:33:46;10.80;99.90
10278;DHT22;5184;51.376;7.148;2023-05-14T06:36:13;10.80;99.90
10278;DHT22;5184;51.376;7.148;2023-05-14T06:38:40;11.00;99.90
10278;DHT22;5184;51.376;7.148;2023-05-14T06:41:07;11.20;99.90
10278;DHT22;5184;51.376;7.148;2023-05-14T06:43:35;11.30;99.90
10278;DHT22;5184;51.376;7.148;2023-05-14T06:46:01;11.30;99.90
10278;DHT22;5184;51.376;7.148;2023-05-14T06:48:28;11.50;99.90
10278;DHT22;5184;51.376;7.148;2023-05-14T06:50:55;11.60;99.90
10278;DHT22;5184;51.376;7.148;2023-05-14T06:53:22;12.00;99.90
10278;DHT22;5184;51.376;7.148;2023-05-14T06:55:49;12.00;99.90
10278;DHT22;5184;51.376;7.148;2023-05-14T06:58:15;12.20;99.90
10278;DHT22;5184;51.376;7.148;2023-05-14T07:00:42;12.30;99.90
10278;DHT22;5184;51.376;7.148;2023-05-14T07:03:09;12.70;1.00
10278;DHT22;5184;51.376;7.148;2023-05-14T07:05:36;12.90;1.00
10278;DHT22;5184;51.376;7.148;2023-05-14T07:08:04;13.10;99.90
10278;DHT22;5184;51.376;7.148;2023-05-14T07:10:31;13.10;99.90
10278;DHT22;5184;51.376;7.148;2023-05-14T07:12:57;13.30;1.00
10278;DHT22;5184;51.376;7.148;2023-05-14T07:15:24;13.40;1.00
10278;DHT22;5184;51.376;7.148;2023-05-14T07:17:50;13.60;1.00
10278;DHT22;5184;51.376;7.148;2023-05-14T07:20:17;13.90;99.90
10278;DHT22;5184;51.376;7.148;2023-05-14T07:22:43;14.10;1.00
10278;DHT22;5184;51.376;7.148;2023-05-14T07:25:10;14.30;99.90
10278;DHT22;5184;51.376;7.148;2023-05-14T07:27:37;14.40;99.90
10278;DHT22;5184;51.376;7.148;2023-05-14T07:30:04;14.60;1.00
10278;DHT22;5184;51.376;7.148;2023-05-14T07:32:31;14.60;1.00
10278;DHT22;5184;51.376;7.148;2023-05-14T07:34:58;14.80;1.00
10278;DHT22;5184;51.376;7.148;2023-05-14T07:37:24;14.90;99.90
10278;DHT22;5184;51.376;7.148;2023-05-14T07:39:51;15.10;99.90
10278;DHT22;5184;51.376;7.148;2023-05-14T07:42:18;15.30;99.90
10278;DHT22;5184;51.376;7.148;2023-05-14T07:44:46;15.40;65.80
10278;DHT22;5184;51.376;7.148;2023-05-14T07:47:13;15.40;99.90
10278;DHT22;5184;51.376;7.148;2023-05-14T07:49:40;15.40;99.90
10278;DHT22;5184;51.376;7.148;2023-05-14T07:52:06;15.60;99.90
10278;DHT22;5184;51.376;7.148;2023-05-14T07:54:33;15.70;32.50
10278;DHT22;5184;51.376;7.148;2023-05-14T07:56:59;15.90;1.00
10278;DHT22;5184;51.376;7.148;2023-05-14T07:59:26;16.00;1.00
10278;DHT22;5184;51.376;7.148;2023-05-14T08:01:53;16.30;99.90
10278;DHT22;5184;51.376;7.148;2023-05-14T08:04:21;16.40;1.00
10278;DHT22;5184;51.376;7.148;2023-05-14T08:06:48;16.40;1.00
10278;DHT22;5184;51.376;7.148;2023-05-14T08:09:15;16.50;1.00
10278;DHT22;5184;51.376;7.148;2023-05-14T08:11:43;16.60;99.90
10278;DHT22;5184;51.376;7.148;2023-05-14T08:14:10;16.60;99.90
10278;DHT22;5184;51.376;7.148;2023-05-14T08:16:37;16.60;99.90
10278;DHT22;5184;51.376;7.148;2023-05-14T08:19:03;16.70;1.00
10278;DHT22;5184;51.376;7.148;2023-05-14T08:21:30;16.80;99.90
10278;DHT22;5184;51.376;7.148;2023-05-14T08:23:57;16.90;99.90
10278;DHT22;5184;51.376;7.148;2023-05-14T08:26:23;17.00;99.90
10278;DHT22;5184;51.376;7.148;2023-05-14T08:28:51;17.20;99.90
10278;DHT22;5184;51.376;7.148;2023-05-14T08:31:18;17.30;99.90
10278;DHT22;5184;51.376;7.148;2023-05-14T08:33:44;17.30;99.90
10278;DHT22;5184;51.376;7.148;2023-05-14T08:36:11;17.30;99.90
10278;DHT22;5184;51.376;7.148;2023-05-14T08:38:38;17.40;99.90
10278;DHT22;5184;51.376;7.148;2023-05-14T08:41:05;17.50;1.00
10278;DHT22;5184;51.376;7.148;2023-05-14T08:43:37;17.60;99.90
10278;DHT22;5184;51.376;7.148;2023-05-14T08:46:01;17.60;1.00
10278;DHT22;5184;51.376;7.148;2023-05-14T08:48:28;17.60;99.90
10278;DHT22;5184;51.376;7.148;2023-05-14T08:50:55;17.70;1.00
10278;DHT22;5184;51.376;7.148;2023-05-14T08:53:22;17.70;99.90
10278;DHT22;5184;51.376;7.148;2023-05-14T08:55:50;17.70;99.90
10278;DHT22;5184;51.376;7.148;2023-05-14T08:58:16;17.60;99.90
10278;DHT22;5184;51.376;7.148;2023-05-14T09:00:43;17.70;99.90
10278;DHT22;5184;51.376;7.148;2023-05-14T09:03:09;17.80;99.90
10278;DHT22;5184;51.376;7.148;2023-05-14T09:05:36;17.70;99.90
10278;DHT22;5184;51.376;7.148;2023-05-14T09:08:03;17.90;99.90
10278;DHT22;5184;51.376;7.148;2023-05-14T09:10:29;18.00;99.90
10278;DHT22;5184;51.376;7.148;2023-05-14T09:12:56;18.00;99.90
10278;DHT22;5184;51.376;7.148;2023-05-14T09:15:22;18.00;1.00
10278;DHT22;5184;51.376;7.148;2023-05-14T09:17:50;18.10;1.00
10278;DHT22;5184;51.376;7.148;2023-05-14T09:20:17;18.10;1.00
10278;DHT22;5184;51.376;7.148;2023-05-14T09:22:44;18.20;1.00
10278;DHT22;5184;51.376;7.148;2023-05-14T09:25:11;18.20;1.00
10278;DHT22;5184;51.376;7.148;2023-05-14T09:27:38;18.30;1.00
10278;DHT22;5184;51.376;7.148;2023-05-14T09:30:12;18.30;1.00
10278;DHT22;5184;51.376;7.148;2023-05-14T09:32:39;18.30;1.00
10278;DHT22;5184;51.376;7.148;2023-05-14T09:35:09;18.40;99.90
10278;DHT22;5184;51.376;7.148;2023-05-14T09:37:35;18.50;99.90
10278;DHT22;5184;51.376;7.148;2023-05-14T09:40:06;18.50;99.90
10278;DHT22;5184;51.376;7.148;2023-05-14T09:42:31;18.50;99.90
10278;DHT22;5184;51.376;7.148;2023-05-14T09:44:58;18.60;99.90
10278;DHT22;5184;51.376;7.148;2023-05-14T09:47:25;18.60;99.90
10278;DHT22;5184;51.376;7.148;2023-05-14T09:49:51;18.70;99.90
10278;DHT22;5184;51.376;7.148;2023-05-14T09:52:18;18.80;8.40
10278;DHT22;5184;51.376;7.148;2023-05-14T09:54:45;18.80;1.00
10278;DHT22;5184;51.376;7.148;2023-05-14T09:57:12;18.90;1.00
10278;DHT22;5184;51.376;7.148;2023-05-14T09:59:40;18.90;1.00
10278;DHT22;5184;51.376;7.148;2023-05-14T10:02:10;18.90;1.00
10278;DHT22;5184;51.376;7.148;2023-05-14T10:04:35;19.00;1.00
10278;DHT22;5184;51.376;7.148;2023-05-14T10:07:02;19.10;1.00
10278;DHT22;5184;51.376;7.148;2023-05-14T10:09:29;19.00;1.00
10278;DHT22;5184;51.376;7.148;2023-05-14T10:11:57;19.20;1.00
10278;DHT22;5184;51.376;7.148;2023-05-14T10:14:39;19.20;1.00
10278;DHT22;5184;51.376;7.148;2023-05-14T10:17:05;19.20;1.00
10278;DHT22;5184;51.376;7.148;2023-05-14T10:19:32;19.30;1.00
10278;DHT22;5184;51.376;7.148;2023-05-14T10:22:02;19.30;1.00
10278;DHT22;5184;51.376;7.148;2023-05-14T10:24:25;19.30;1.00
10278;DHT22;5184;51.376;7.148;2023-05-14T10:26:52;19.40;1.00
10278;DHT22;5184;51.376;7.148;2023-05-14T10:29:18;19.40;1.00
10278;DHT22;5184;51.376;7.148;2023-05-14T10:31:47;19.50;1.00
10278;DHT22;5184;51.376;7.148;2023-05-14T10:34:50;19.40;1.00
10278;DHT22;5184;51.376;7.148;2023-05-14T10:37:06;19.40;1.00
10278;DHT22;5184;51.376;7.148;2023-05-14T10:40:07;19.40;1.00
10278;DHT22;5184;51.376;7.148;2023-05-14T10:42:34;19.60;1.00
10278;DHT22;5184;51.376;7.148;2023-05-14T10:45:02;19.50;1.00
10278;DHT22;5184;51.376;7.148;2023-05-14T10:47:29;19.60;1.00
10278;DHT22;5184;51.376;7.148;2023-05-14T10:49:58;19.70;1.00
10278;DHT22;5184;51.376;7.148;2023-05-14T10:52:24;19.70;1.00
10278;DHT22;5184;51.376;7.148;2023-05-14T10:54:55;19.70;1.00
10278;DHT22;5184;51.376;7.148;2023-05-14T10:57:22;19.60;1.00
10278;DHT22;5184;51.376;7.148;2023-05-14T10:59:49;19.70;1.00
10278;DHT22;5184;51.376;7.148;2023-05-14T11:02:21;19.80;1.00
10278;DHT22;5184;51.376;7.148;2023-05-14T11:04:54;19.80;1.00
10278;DHT22;5184;51.376;7.148;2023-05-14T11:07:22;20.10;1.00
10278;DHT22;5184;51.376;7.148;2023-05-14T11:09:48;20.10;1.00
10278;DHT22;5184;51.376;7.148;2023-05-14T11:12:15;20.10;1.00
10278;DHT22;5184;51.376;7.148;2023-05-14T11:14:41;20.30;1.00
10278;DHT22;5184;51.376;7.148;2023-05-14T11:17:07;20.50;1.00
10278;DHT22;5184;51.376;7.148;2023-05-14T11:19:35;20.60;1.00
10278;DHT22;5184;51.376;7.148;2023-05-14T11:22:02;20.70;1.00
10278;DHT22;5184;51.376;7.148;2023-05-14T11:24:30;20.70;1.00
10278;DHT22;5184;51.376;7.148;2023-05-14T11:26:57;20.80;1.00
10278;DHT22;5184;51.376;7.148;2023-05-14T11:29:23;20.80;1.00
10278;DHT22;5184;51.376;7.148;2023-05-14T11:31:50;20.60;1.00
10278;DHT22;5184;51.376;7.148;2023-05-14T11:34:17;20.70;1.00
10278;DHT22;5184;51.376;7.148;2023-05-14T11:36:43;20.60;1.00
10278;DHT22;5184;51.376;7.148;2023-05-14T11:39:16;20.60;1.00
10278;DHT22;5184;51.376;7.148;2023-05-14T11:41:42;20.60;1.00
10278;DHT22;5184;51.376;7.148;2023-05-14T11:44:03;20.60;1.00
10278;DHT22;5184;51.376;7.148;2023-05-14T11:46:30;20.80;1.00
10278;DHT22;5184;51.376;7.148;2023-05-14T11:48:58;21.00;1.00
10278;DHT22;5184;51.376;7.148;2023-05-14T11:51:25;21.10;1.00
10278;DHT22;5184;51.376;7.148;2023-05-14T11:53:52;21.20;1.00
10278;DHT22;5184;51.376;7.148;2023-05-14T11:56:20;21.20;1.00
10278;DHT22;5184;51.376;7.148;2023-05-14T11:58:47;21.20;1.00
10278;DHT22;5184;51.376;7.148;2023-05-14T12:01:13;21.40;1.00
10278;DHT22;5184;51.376;7.148;2023-05-14T12:03:40;21.30;1.00
10278;DHT22;5184;51.376;7.148;2023-05-14T12:06:08;21.10;1.00
10278;DHT22;5184;51.376;7.148;2023-05-14T12:08:35;21.00;1.00
10278;DHT22;5184;51.376;7.148;2023-05-14T12:11:02;21.00;1.00
10278;DHT22;5184;51.376;7.148;2023-05-14T12:13:29;20.80;1.00
10278;DHT22;5184;51.376;7.148;2023-05-14T12:15:56;20.70;1.00
10278;DHT22;5184;51.376;7.148;2023-05-14T12:18:24;20.70;1.00
10278;DHT22;5184;51.376;7.148;2023-05-14T12:20:50;20.90;1.00
10278;DHT22;5184;51.376;7.148;2023-05-14T12:23:25;21.30;1.00
10278;DHT22;5184;51.376;7.148;2023-05-14T12:25:52;21.50;1.00
10278;DHT22;5184;51.376;7.148;2023-05-14T12:28:21;21.50;1.00
10278;DHT22;5184;51.376;7.148;2023-05-14T12:30:47;21.40;1.00
10278;DHT22;5184;51.376;7.148;2023-05-14T12:33:14;21.30;1.00
10278;DHT22;5184;51.376;7.148;2023-05-14T12:35:41;21.20;1.00
10278;DHT22;5184;51.376;7.148;2023-05-14T12:38:09;21.20;1.00
10278;DHT22;5184;51.376;7.148;2023-05-14T12:40:35;21.20;1.00
10278;DHT22;5184;51.376;7.148;2023-05-14T12:43:02;21.30;1.00
10278;DHT22;5184;51.376;7.148;2023-05-14T12:45:29;21.40;1.00
10278;DHT22;5184;51.376;7.148;2023-05-14T12:47:56;21.20;1.00
10278;DHT22;5184;51.376;7.148;2023-05-14T12:50:23;21.30;1.00
10278;DHT22;5184;51.376;7.148;2023-05-14T12:52:51;21.30;1.00
10278;DHT22;5184;51.376;7.148;2023-05-14T12:55:18;21.50;1.00
10278;DHT22;5184;51.376;7.148;2023-05-14T12:57:45;21.50;1.00
10278;DHT22;5184;51.376;7.148;2023-05-14T13:00:13;21.60;1.00
10278;DHT22;5184;51.376;7.148;2023-05-14T13:02:40;21.60;1.00
10278;DHT22;5184;51.376;7.148;2023-05-14T13:05:07;21.70;1.00
10278;DHT22;5184;51.376;7.148;2023-05-14T13:07:34;21.70;1.00
10278;DHT22;5184;51.376;7.148;2023-05-14T13:10:02;21.80;1.00
10278;DHT22;5184;51.376;7.148;2023-05-14T13:12:28;21.80;1.00
10278;DHT22;5184;51.376;7.148;2023-05-14T13:14:55;21.80;1.00
10278;DHT22;5184;51.376;7.148;2023-05-14T13:17:22;22.00;1.00
10278;DHT22;5184;51.376;7.148;2023-05-14T13:19:50;22.10;1.00
10278;DHT22;5184;51.376;7.148;2023-05-14T13:22:16;22.10;1.00
10278;DHT22;5184;51.376;7.148;2023-05-14T13:24:43;22.20;1.00
10278;DHT22;5184;51.376;7.148;2023-05-14T13:27:10;22.30;1.00
10278;DHT22;5184;51.376;7.148;2023-05-14T13:29:38;22.40;1.00
10278;DHT22;5184;51.376;7.148;2023-05-14T13:32:05;22.40;1.00
10278;DHT22;5184;51.376;7.148;2023-05-14T13:34:32;22.40;1.00
10278;DHT22;5184;51.376;7.148;2023-05-14T13:36:58;22.50;1.00
10278;DHT22;5184;51.376;7.148;2023-05-14T13:39:25;22.60;1.00
10278;DHT22;5184;51.376;7.148;2023-05-14T13:41:53;22.60;1.00
10278;DHT22;5184;51.376;7.148;2023-05-14T13:44:19;22.70;1.00
10278;DHT22;5184;51.376;7.148;2023-05-14T13:46:46;22.70;1.00
10278;DHT22;5184;51.376;7.148;2023-05-14T13:49:14;22.70;1.00
10278;DHT22;5184;51.376;7.148;2023-05-14T13:51:41;22.60;1.00
10278;DHT22;5184;51.376;7.148;2023-05-14T13:54:08;22.60;1.00
10278;DHT22;5184;51.376;7.148;2023-05-14T13:56:36;22.60;1.00
10278;DHT22;5184;51.376;7.148;2023-05-14T13:59:02;22.60;1.00
10278;DHT22;5184;51.376;7.148;2023-05-14T14:01:29;22.80;1.00
10278;DHT22;5184;51.376;7.148;2023-05-14T14:03:56;22.90;1.00
10278;DHT22;5184;51.376;7.148;2023-05-14T14:06:22;23.10;1.00
10278;DHT22;5184;51.376;7.148;2023-05-14T14:08:49;23.20;1.00
10278;DHT22;5184;51.376;7.148;2023-05-14T14:11:15;23.10;1.00
10278;DHT22;5184;51.376;7.148;2023-05-14T14:13:42;23.00;1.00
10278;DHT22;5184;51.376;7.148;2023-05-14T14:16:09;22.80;1.00
10278;DHT22;5184;51.376;7.148;2023-05-14T14:18:37;22.90;1.00
10278;DHT22;5184;51.376;7.148;2023-05-14T14:21:04;23.00;1.00
10278;DHT22;5184;51.376;7.148;2023-05-14T14:23:31;23.10;1.00
10278;DHT22;5184;51.376;7.148;2023-05-14T14:25:59;23.20;1.00
10278;DHT22;5184;51.376;7.148;2023-05-14T14:28:25;23.20;1.00
10278;DHT22;5184;51.376;7.148;2023-05-14T14:30:52;23.30;1.00
10278;DHT22;5184;51.376;7.148;2023-05-14T14:33:18;23.40;1.00
10278;DHT22;5184;51.376;7.148;2023-05-14T14:35:45;23.50;1.00
10278;DHT22;5184;51.376;7.148;2023-05-14T14:38:12;23.70;1.00
10278;DHT22;5184;51.376;7.148;2023-05-14T14:40:38;23.80;1.00
10278;DHT22;5184;51.376;7.148;2023-05-14T14:43:05;23.90;1.00
10278;DHT22;5184;51.376;7.148;2023-05-14T14:45:31;24.40;1.00
10278;DHT22;5184;51.376;7.148;2023-05-14T14:50:36;25.70;1.00
10278;DHT22;5184;51.376;7.148;2023-05-14T14:53:04;26.10;1.00
10278;DHT22;5184;51.376;7.148;2023-05-14T14:55:31;26.30;1.00
10278;DHT22;5184;51.376;7.148;2023-05-14T14:57:58;26.40;1.00
10278;DHT22;5184;51.376;7.148;2023-05-14T15:00:26;26.40;1.00
10278;DHT22;5184;51.376;7.148;2023-05-14T15:02:53;26.30;1.00
10278;DHT22;5184;51.376;7.148;2023-05-14T15:05:21;26.20;1.00
10278;DHT22;5184;51.376;7.148;2023-05-14T15:07:48;26.10;1.00
10278;DHT22;5184;51.376;7.148;2023-05-14T15:10:14;26.00;1.00
10278;DHT22;5184;51.376;7.148;2023-05-14T15:12:42;25.50;1.00
10278;DHT22;5184;51.376;7.148;2023-05-14T15:15:09;25.30;1.00
10278;DHT22;5184;51.376;7.148;2023-05-14T15:17:37;25.10;1.00
10278;DHT22;5184;51.376;7.148;2023-05-14T15:20:04;24.80;1.00
10278;DHT22;5184;51.376;7.148;2023-05-14T15:22:31;24.80;1.00
10278;DHT22;5184;51.376;7.148;2023-05-14T15:24:58;24.60;1.00
10278;DHT22;5184;51.376;7.148;2023-05-14T15:27:24;24.40;1.00
10278;DHT22;5184;51.376;7.148;2023-05-14T15:29:51;24.20;1.00
10278;DHT22;5184;51.376;7.148;2023-05-14T15:32:17;24.10;1.00
10278;DHT22;5184;51.376;7.148;2023-05-14T15:34:44;24.10;1.00
10278;DHT22;5184;51.376;7.148;2023-05-14T15:37:11;23.80;1.00
10278;DHT22;5184;51.376;7.148;2023-05-14T15:39:39;23.70;1.00
10278;DHT22;5184;51.376;7.148;2023-05-14T15:42:06;23.60;1.00
10278;DHT22;5184;51.376;7.148;2023-05-14T15:44:33;23.60;1.00
10278;DHT22;5184;51.376;7.148;2023-05-14T15:46:59;23.70;1.00
10278;DHT22;5184;51.376;7.148;2023-05-14T15:49:26;23.60;1.00
10278;DHT22;5184;51.376;7.148;2023-05-14T15:51:53;23.50;1.00
10278;DHT22;5184;51.376;7.148;2023-05-14T15:54:21;23.50;1.00
10278;DHT22;5184;51.376;7.148;2023-05-14T15:56:48;23.30;1.00
10278;DHT22;5184;51.376;7.148;2023-05-14T15:59:15;23.20;1.00
10278;DHT22;5184;51.376;7.148;2023-05-14T16:01:43;23.00;1.00
10278;DHT22;5184;51.376;7.148;2023-05-14T16:04:10;22.80;1.00